sensor_id;sensor_type;location;lat;lon;timestamp;pressure;altitude;pressure_sealevel;temperature;humidity
19884;BME280;10104;50.732;10.174;2023-02-28T00:01:06;99028.00;;;0.95;72.71
19884;BME280;10104;50.732;10.174;2023-02-28T00:03:28;99030.94;;;1.03;71.85
19884;BME280;10104;50.732;10.174;2023-02-28T00:05:49;99029.66;;;0.96;71.96
19884;BME280;10104;50.732;10.174;2023-02-28T00:08:11;99032.75;;;0.88;72.30
19884;BME280;10104;50.732;10.174;2023-02-28T00:10:33;99032.06;;;0.86;73.11
19884;BME280;10104;50.732;10.174;2023-02-28T00:13:00;99023.03;;;0.77;73.02
19884;BME280;10104;50.732;10.174;2023-02-28T00:15:23;99022.19;;;0.77;73.55
19884;BME280;10104;50.732;10.174;2023-02-28T00:17:44;99027.75;;;0.58;74.95
19884;BME280;10104;50.732;10.174;2023-02-28T00:20:07;99026.13;;;0.70;74.73
19884;BME280;10104;50.732;10.174;2023-02-28T00:22:33;99030.06;;;0.63;75.31
19884;BME280;10104;50.732;10.174;2023-02-28T00:24:54;99029.47;;;0.72;74.01
19884;BME280;10104;50.732;10.174;2023-02-28T00:27:15;99021.00;;;0.68;74.28
19884;BME280;10104;50.732;10.174;2023-02-28T00:29:37;99023.88;;;0.78;73.65
19884;BME280;10104;50.732;10.174;2023-02-28T00:31:59;99021.56;;;0.73;73.36
19884;BME280;10104;50.732;10.174;2023-02-28T00:34:20;99023.63;;;0.68;73.20
19884;BME280;10104;50.732;10.174;2023-02-28T00:36:42;99019.31;;;0.55;74.07
19884;BME280;10104;50.732;10.174;2023-02-28T00:39:06;99027.84;;;0.84;72.83
19884;BME280;10104;50.732;10.174;2023-02-28T00:41:28;99018.63;;;0.92;72.55
19884;BME280;10104;50.732;10.174;2023-02-28T00:43:49;99022.59;;;0.98;71.19
19884;BME280;10104;50.732;10.174;2023-02-28T00:46:11;99022.03;;;0.93;71.30
19884;BME280;10104;50.732;10.174;2023-02-28T00:48:33;99018.06;;;0.87;70.83
19884;BME280;10104;50.732;10.174;2023-02-28T00:50:54;99022.44;;;0.87;71.20
19884;BME280;10104;50.732;10.174;2023-02-28T00:53:16;99021.81;;;0.83;70.70
19884;BME280;10104;50.732;10.174;2023-02-28T00:55:37;99016.59;;;0.83;70.73
19884;BME280;10104;50.732;10.174;2023-02-28T00:57:59;99015.66;;;0.84;70.42
19884;BME280;10104;50.732;10.174;2023-02-28T01:00:20;99015.84;;;0.81;70.42
19884;BME280;10104;50.732;10.174;2023-02-28T01:02:42;99012.22;;;0.84;70.88
19884;BME280;10104;50.732;10.174;2023-02-28T01:05:04;99008.41;;;0.75;70.70
19884;BME280;10104;50.732;10.174;2023-02-28T01:07:26;99010.22;;;0.87;70.61
19884;BME280;10104;50.732;10.174;2023-02-28T01:09:47;99013.59;;;0.89;69.95
19884;BME280;10104;50.732;10.174;2023-02-28T01:12:08;99014.06;;;0.81;70.66
19884;BME280;10104;50.732;10.174;2023-02-28T01:14:30;99012.09;;;0.72;70.91
19884;BME280;10104;50.732;10.174;2023-02-28T01:16:51;99009.34;;;0.61;71.09
19884;BME280;10104;50.732;10.174;2023-02-28T01:19:13;99006.06;;;0.58;71.82
19884;BME280;10104;50.732;10.174;2023-02-28T01:21:34;99008.72;;;0.44;73.01
19884;BME280;10104;50.732;10.174;2023-02-28T01:23:57;99009.94;;;0.38;73.48
19884;BME280;10104;50.732;10.174;2023-02-28T01:26:21;99013.59;;;0.35;74.12
19884;BME280;10104;50.732;10.174;2023-02-28T01:28:42;99013.31;;;0.26;74.77
19884;BME280;10104;50.732;10.174;2023-02-28T01:31:04;99002.06;;;0.25;75.21
19884;BME280;10104;50.732;10.174;2023-02-28T01:33:27;99003.50;;;0.17;75.96
19884;BME280;10104;50.732;10.174;2023-02-28T01:35:49;99011.84;;;0.22;75.73
19884;BME280;10104;50.732;10.174;2023-02-28T01:38:11;99014.44;;;0.22;76.39
19884;BME280;10104;50.732;10.174;2023-02-28T01:40:42;99007.66;;;0.19;76.37
19884;BME280;10104;50.732;10.174;2023-02-28T01:43:23;99005.44;;;0.13;76.92
19884;BME280;10104;50.732;10.174;2023-02-28T01:45:45;99007.03;;;0.16;77.42
19884;BME280;10104;50.732;10.174;2023-02-28T01:48:08;99011.38;;;0.29;76.35
19884;BME280;10104;50.732;10.174;2023-02-28T01:50:34;99006.03;;;0.31;76.52
19884;BME280;10104;50.732;10.174;2023-02-28T01:53:01;99008.00;;;0.42;75.75
19884;BME280;10104;50.732;10.174;2023-02-28T01:55:27;99005.09;;;0.46;76.03
19884;BME280;10104;50.732;10.174;2023-02-28T01:57:52;99007.25;;;0.39;76.42
19884;BME280;10104;50.732;10.174;2023-02-28T02:00:19;99000.28;;;0.26;77.81
19884;BME280;10104;50.732;10.174;2023-02-28T02:02:46;98995.97;;;0.39;76.35
19884;BME280;10104;50.732;10.174;2023-02-28T02:05:20;98998.41;;;0.42;76.77
19884;BME280;10104;50.732;10.174;2023-02-28T02:07:45;98994.97;;;0.42;76.66
19884;BME280;10104;50.732;10.174;2023-02-28T02:15:20;98986.41;;;0.39;76.87
19884;BME280;10104;50.732;10.174;2023-02-28T02:17:46;98988.03;;;0.55;76.74
19884;BME280;10104;50.732;10.174;2023-02-28T02:20:32;98984.88;;;0.50;76.64
19884;BME280;10104;50.732;10.174;2023-02-28T02:26:11;98978.41;;;0.43;77.07
19884;BME280;10104;50.732;10.174;2023-02-28T02:28:52;98979.81;;;0.34;77.28
19884;BME280;10104;50.732;10.174;2023-02-28T02:40:08;98983.16;;;0.36;78.34
19884;BME280;10104;50.732;10.174;2023-02-28T02:42:52;98975.94;;;0.54;76.73
19884;BME280;10104;50.732;10.174;2023-02-28T02:45:24;98980.72;;;0.47;76.98
19884;BME280;10104;50.732;10.174;2023-02-28T02:47:48;98972.53;;;0.39;77.21
19884;BME280;10104;50.732;10.174;2023-02-28T02:50:17;98981.19;;;0.39;77.54
19884;BME280;10104;50.732;10.174;2023-02-28T02:52:56;98984.09;;;0.35;77.69
19884;BME280;10104;50.732;10.174;2023-02-28T02:55:20;98983.06;;;0.37;77.94
19884;BME280;10104;50.732;10.174;2023-02-28T02:57:57;98988.66;;;0.31;77.34
19884;BME280;10104;50.732;10.174;2023-02-28T03:00:25;98990.78;;;0.39;77.22
19884;BME280;10104;50.732;10.174;2023-02-28T03:02:49;98991.25;;;0.31;77.68
19884;BME280;10104;50.732;10.174;2023-02-28T03:05:21;98999.06;;;0.31;77.58
19884;BME280;10104;50.732;10.174;2023-02-28T03:07:44;98991.16;;;0.33;77.55
19884;BME280;10104;50.732;10.174;2023-02-28T03:10:29;98994.69;;;0.32;77.82
19884;BME280;10104;50.732;10.174;2023-02-28T03:13:00;98990.69;;;0.40;77.71
19884;BME280;10104;50.732;10.174;2023-02-28T03:15:40;98989.66;;;0.43;77.61
19884;BME280;10104;50.732;10.174;2023-02-28T03:18:10;98987.25;;;0.40;77.80
19884;BME280;10104;50.732;10.174;2023-02-28T03:20:54;98984.47;;;0.43;76.97
19884;BME280;10104;50.732;10.174;2023-02-28T03:23:45;98989.00;;;0.39;77.28
19884;BME280;10104;50.732;10.174;2023-02-28T03:26:23;98993.28;;;0.40;77.42
19884;BME280;10104;50.732;10.174;2023-02-28T03:31:39;98992.47;;;0.26;78.46
19884;BME280;10104;50.732;10.174;2023-02-28T03:34:08;98990.38;;;0.18;78.83
19884;BME280;10104;50.732;10.174;2023-02-28T03:36:45;98994.75;;;0.18;78.82
19884;BME280;10104;50.732;10.174;2023-02-28T03:39:16;98990.97;;;0.36;77.80
19884;BME280;10104;50.732;10.174;2023-02-28T03:41:46;98987.16;;;0.42;77.23
19884;BME280;10104;50.732;10.174;2023-02-28T03:44:15;98992.28;;;0.43;77.08
19884;BME280;10104;50.732;10.174;2023-02-28T03:46:42;98993.84;;;0.31;77.11
19884;BME280;10104;50.732;10.174;2023-02-28T03:49:14;98988.81;;;0.43;76.77
19884;BME280;10104;50.732;10.174;2023-02-28T03:51:38;98995.66;;;0.17;77.72
19884;BME280;10104;50.732;10.174;2023-02-28T03:54:12;98991.75;;;0.24;77.64
19884;BME280;10104;50.732;10.174;2023-02-28T03:56:45;98998.28;;;0.17;77.71
19884;BME280;10104;50.732;10.174;2023-02-28T03:59:15;98997.81;;;0.24;78.07
19884;BME280;10104;50.732;10.174;2023-02-28T04:01:44;98992.31;;;0.15;79.09
19884;BME280;10104;50.732;10.174;2023-02-28T04:04:07;98995.19;;;0.24;78.10
19884;BME280;10104;50.732;10.174;2023-02-28T04:06:31;98994.44;;;0.22;78.79
19884;BME280;10104;50.732;10.174;2023-02-28T04:08:53;98999.88;;;0.05;80.84
19884;BME280;10104;50.732;10.174;2023-02-28T04:11:25;99002.88;;;-0.01;81.24
19884;BME280;10104;50.732;10.174;2023-02-28T04:13:49;99002.94;;;0.12;80.75
19884;BME280;10104;50.732;10.174;2023-02-28T04:16:11;99002.19;;;0.10;80.90
19884;BME280;10104;50.732;10.174;2023-02-28T04:18:44;99010.63;;;0.27;79.41
19884;BME280;10104;50.732;10.174;2023-02-28T04:21:06;98998.03;;;0.34;78.88
19884;BME280;10104;50.732;10.174;2023-02-28T04:23:28;99002.72;;;0.29;79.54
19884;BME280;10104;50.732;10.174;2023-02-28T04:25:49;99006.88;;;0.31;79.77
19884;BME280;10104;50.732;10.174;2023-02-28T04:28:12;99002.91;;;0.26;79.56
19884;BME280;10104;50.732;10.174;2023-02-28T04:30:33;99001.09;;;0.40;78.73
19884;BME280;10104;50.732;10.174;2023-02-28T04:32:55;99007.34;;;0.38;78.39
19884;BME280;10104;50.732;10.174;2023-02-28T04:35:16;98996.34;;;0.47;77.96
19884;BME280;10104;50.732;10.174;2023-02-28T04:37:38;99009.06;;;0.52;77.75
19884;BME280;10104;50.732;10.174;2023-02-28T04:39:59;99001.47;;;0.49;78.23
19884;BME280;10104;50.732;10.174;2023-02-28T04:42:21;99014.38;;;0.50;78.10
19884;BME280;10104;50.732;10.174;2023-02-28T04:44:42;99003.84;;;0.52;78.20
19884;BME280;10104;50.732;10.174;2023-02-28T04:47:05;99007.41;;;0.51;78.29
19884;BME280;10104;50.732;10.174;2023-02-28T04:49:26;99010.75;;;0.53;77.65
19884;BME280;10104;50.732;10.174;2023-02-28T04:51:48;99001.72;;;0.44;78.53
19884;BME280;10104;50.732;10.174;2023-02-28T04:54:11;99003.06;;;0.37;79.07
19884;BME280;10104;50.732;10.174;2023-02-28T04:56:33;98997.72;;;0.53;78.18
19884;BME280;10104;50.732;10.174;2023-02-28T04:58:54;99005.19;;;0.45;77.95
19884;BME280;10104;50.732;10.174;2023-02-28T05:01:17;99003.34;;;0.32;78.50
19884;BME280;10104;50.732;10.174;2023-02-28T05:03:39;99010.44;;;0.30;78.67
19884;BME280;10104;50.732;10.174;2023-02-28T05:06:04;99011.31;;;0.44;77.43
19884;BME280;10104;50.732;10.174;2023-02-28T05:08:25;99005.19;;;0.45;76.62
19884;BME280;10104;50.732;10.174;2023-02-28T05:10:47;99009.94;;;0.38;76.49
19884;BME280;10104;50.732;10.174;2023-02-28T05:13:11;99010.97;;;0.35;76.16
19884;BME280;10104;50.732;10.174;2023-02-28T05:15:33;99004.28;;;0.31;76.76
19884;BME280;10104;50.732;10.174;2023-02-28T05:17:56;99012.94;;;0.32;75.85
19884;BME280;10104;50.732;10.174;2023-02-28T05:20:17;99004.56;;;0.27;76.57
19884;BME280;10104;50.732;10.174;2023-02-28T05:22:40;99008.59;;;0.18;76.74
19884;BME280;10104;50.732;10.174;2023-02-28T05:25:02;99010.84;;;0.10;76.66
19884;BME280;10104;50.732;10.174;2023-02-28T05:27:24;99008.59;;;0.18;76.83
19884;BME280;10104;50.732;10.174;2023-02-28T05:29:46;99014.44;;;0.36;75.94
19884;BME280;10104;50.732;10.174;2023-02-28T05:32:14;99014.22;;;0.39;75.90
19884;BME280;10104;50.732;10.174;2023-02-28T05:34:39;99015.97;;;0.53;74.15
19884;BME280;10104;50.732;10.174;2023-02-28T05:37:00;99017.19;;;0.47;74.50
19884;BME280;10104;50.732;10.174;2023-02-28T05:39:22;99009.03;;;0.66;73.64
19884;BME280;10104;50.732;10.174;2023-02-28T05:41:43;99019.63;;;0.63;72.42
19884;BME280;10104;50.732;10.174;2023-02-28T05:44:05;99013.81;;;0.59;72.19
19884;BME280;10104;50.732;10.174;2023-02-28T05:46:26;99020.25;;;0.54;72.16
19884;BME280;10104;50.732;10.174;2023-02-28T05:48:48;99020.34;;;0.52;71.72
19884;BME280;10104;50.732;10.174;2023-02-28T05:51:10;99023.03;;;0.51;71.00
19884;BME280;10104;50.732;10.174;2023-02-28T05:53:32;99021.19;;;0.38;70.88
19884;BME280;10104;50.732;10.174;2023-02-28T05:55:54;99020.34;;;0.38;70.74
19884;BME280;10104;50.732;10.174;2023-02-28T05:58:16;99030.69;;;0.25;70.66
19884;BME280;10104;50.732;10.174;2023-02-28T06:00:37;99021.34;;;0.23;70.71
19884;BME280;10104;50.732;10.174;2023-02-28T06:03:01;99022.44;;;0.19;70.95
19884;BME280;10104;50.732;10.174;2023-02-28T06:05:23;99029.81;;;0.12;71.00
19884;BME280;10104;50.732;10.174;2023-02-28T06:07:45;99026.63;;;0.07;71.39
19884;BME280;10104;50.732;10.174;2023-02-28T06:10:07;99035.03;;;0.12;71.24
19884;BME280;10104;50.732;10.174;2023-02-28T06:12:29;99036.13;;;0.08;71.99
19884;BME280;10104;50.732;10.174;2023-02-28T06:14:50;99040.06;;;-0.13;72.10
19884;BME280;10104;50.732;10.174;2023-02-28T06:17:12;99047.94;;;-0.29;74.04
19884;BME280;10104;50.732;10.174;2023-02-28T06:19:33;99052.22;;;-0.28;73.21
19884;BME280;10104;50.732;10.174;2023-02-28T06:21:56;99051.09;;;-0.10;72.69
19884;BME280;10104;50.732;10.174;2023-02-28T06:24:19;99051.56;;;-0.17;73.45
19884;BME280;10104;50.732;10.174;2023-02-28T06:26:40;99050.25;;;-0.38;74.74
19884;BME280;10104;50.732;10.174;2023-02-28T06:29:02;99048.22;;;-0.33;74.15
19884;BME280;10104;50.732;10.174;2023-02-28T06:31:24;99048.78;;;-0.28;74.55
19884;BME280;10104;50.732;10.174;2023-02-28T06:33:47;99056.19;;;-0.36;74.73
19884;BME280;10104;50.732;10.174;2023-02-28T06:36:11;99061.38;;;-0.36;74.61
19884;BME280;10104;50.732;10.174;2023-02-28T06:38:34;99067.53;;;-0.37;75.12
19884;BME280;10104;50.732;10.174;2023-02-28T06:40:57;99061.63;;;-0.25;74.18
19884;BME280;10104;50.732;10.174;2023-02-28T06:43:19;99068.22;;;-0.20;73.44
19884;BME280;10104;50.732;10.174;2023-02-28T06:45:42;99070.44;;;-0.14;73.57
19884;BME280;10104;50.732;10.174;2023-02-28T06:48:04;99074.81;;;0.00;72.90
19884;BME280;10104;50.732;10.174;2023-02-28T06:50:26;99075.09;;;0.10;72.31
19884;BME280;10104;50.732;10.174;2023-02-28T06:52:49;99067.47;;;-0.08;72.41
19884;BME280;10104;50.732;10.174;2023-02-28T06:55:15;99068.59;;;0.17;71.61
19884;BME280;10104;50.732;10.174;2023-02-28T06:57:36;99085.69;;;0.21;71.16
19884;BME280;10104;50.732;10.174;2023-02-28T06:59:59;99077.97;;;0.19;71.04
19884;BME280;10104;50.732;10.174;2023-02-28T07:02:20;99088.66;;;0.29;70.95
19884;BME280;10104;50.732;10.174;2023-02-28T07:04:42;99087.81;;;0.28;71.14
19884;BME280;10104;50.732;10.174;2023-02-28T07:07:05;99089.13;;;0.35;70.64
19884;BME280;10104;50.732;10.174;2023-02-28T07:09:27;99090.91;;;0.35;70.25
19884;BME280;10104;50.732;10.174;2023-02-28T07:11:51;99095.06;;;0.37;70.58
19884;BME280;10104;50.732;10.174;2023-02-28T07:14:12;99082.78;;;0.39;69.89
19884;BME280;10104;50.732;10.174;2023-02-28T07:16:35;99088.00;;;0.25;69.97
19884;BME280;10104;50.732;10.174;2023-02-28T07:18:56;99093.50;;;0.21;69.99
19884;BME280;10104;50.732;10.174;2023-02-28T07:21:18;99090.81;;;0.08;70.50
19884;BME280;10104;50.732;10.174;2023-02-28T07:23:40;99094.63;;;0.03;71.09
19884;BME280;10104;50.732;10.174;2023-02-28T07:26:02;99097.78;;;-0.07;70.95
19884;BME280;10104;50.732;10.174;2023-02-28T07:28:24;99095.16;;;-0.21;72.29
19884;BME280;10104;50.732;10.174;2023-02-28T07:30:46;99083.94;;;-0.07;71.90
19884;BME280;10104;50.732;10.174;2023-02-28T07:33:09;99093.19;;;-0.17;72.30
19884;BME280;10104;50.732;10.174;2023-02-28T07:35:31;99093.41;;;-0.20;73.34
19884;BME280;10104;50.732;10.174;2023-02-28T07:37:52;99089.28;;;-0.24;73.38
19884;BME280;10104;50.732;10.174;2023-02-28T07:40:14;99098.59;;;-0.06;72.35
19884;BME280;10104;50.732;10.174;2023-02-28T07:42:36;99096.31;;;0.18;71.32
19884;BME280;10104;50.732;10.174;2023-02-28T07:44:57;99089.03;;;0.23;70.38
19884;BME280;10104;50.732;10.174;2023-02-28T07:47:20;99096.47;;;0.15;70.78
19884;BME280;10104;50.732;10.174;2023-02-28T07:49:41;99094.72;;;0.15;70.76
19884;BME280;10104;50.732;10.174;2023-02-28T07:52:04;99094.63;;;0.17;70.80
19884;BME280;10104;50.732;10.174;2023-02-28T07:54:26;99096.38;;;0.16;70.40
19884;BME280;10104;50.732;10.174;2023-02-28T07:56:47;99092.41;;;0.11;71.44
19884;BME280;10104;50.732;10.174;2023-02-28T07:59:09;99099.53;;;0.35;69.90
19884;BME280;10104;50.732;10.174;2023-02-28T08:01:30;99091.59;;;0.51;69.59
19884;BME280;10104;50.732;10.174;2023-02-28T08:03:52;99101.72;;;0.56;68.96
19884;BME280;10104;50.732;10.174;2023-02-28T08:06:18;99100.16;;;0.67;68.23
19884;BME280;10104;50.732;10.174;2023-02-28T08:08:40;99096.88;;;0.78;68.17
19884;BME280;10104;50.732;10.174;2023-02-28T08:11:03;99095.19;;;0.77;67.63
19884;BME280;10104;50.732;10.174;2023-02-28T08:13:24;99093.97;;;0.82;66.74
19884;BME280;10104;50.732;10.174;2023-02-28T08:15:46;99094.09;;;0.94;67.01
19884;BME280;10104;50.732;10.174;2023-02-28T08:18:09;99100.94;;;0.82;65.21
19884;BME280;10104;50.732;10.174;2023-02-28T08:20:31;99087.50;;;0.88;66.19
19884;BME280;10104;50.732;10.174;2023-02-28T08:22:52;99085.25;;;0.96;64.93
19884;BME280;10104;50.732;10.174;2023-02-28T08:25:14;99086.50;;;0.91;65.03
19884;BME280;10104;50.732;10.174;2023-02-28T08:27:35;99093.09;;;0.96;65.08
19884;BME280;10104;50.732;10.174;2023-02-28T08:29:57;99092.28;;;1.08;64.22
19884;BME280;10104;50.732;10.174;2023-02-28T08:32:18;99083.63;;;1.08;63.84
19884;BME280;10104;50.732;10.174;2023-02-28T08:34:50;99079.34;;;1.07;63.80
19884;BME280;10104;50.732;10.174;2023-02-28T08:37:12;99083.09;;;1.03;63.36
19884;BME280;10104;50.732;10.174;2023-02-28T08:39:35;99086.78;;;1.13;63.37
19884;BME280;10104;50.732;10.174;2023-02-28T08:41:57;99086.38;;;1.19;63.39
19884;BME280;10104;50.732;10.174;2023-02-28T08:44:28;99082.69;;;1.09;62.67
19884;BME280;10104;50.732;10.174;2023-02-28T08:46:49;99084.78;;;1.04;62.49
19884;BME280;10104;50.732;10.174;2023-02-28T08:49:11;99084.16;;;1.13;63.04
19884;BME280;10104;50.732;10.174;2023-02-28T08:51:32;99088.00;;;1.07;63.08
19884;BME280;10104;50.732;10.174;2023-02-28T08:53:59;99090.16;;;1.28;61.80
19884;BME280;10104;50.732;10.174;2023-02-28T08:56:21;99088.84;;;1.35;61.94
19884;BME280;10104;50.732;10.174;2023-02-28T08:58:44;99094.56;;;1.40;61.34
19884;BME280;10104;50.732;10.174;2023-02-28T09:01:11;99097.63;;;1.46;61.49
19884;BME280;10104;50.732;10.174;2023-02-28T09:03:33;99087.84;;;1.75;60.95
19884;BME280;10104;50.732;10.174;2023-02-28T09:05:57;99090.38;;;1.89;59.86
19884;BME280;10104;50.732;10.174;2023-02-28T09:08:18;99088.69;;;2.01;59.49
19884;BME280;10104;50.732;10.174;2023-02-28T09:10:40;99090.03;;;2.19;57.96
19884;BME280;10104;50.732;10.174;2023-02-28T09:13:01;99092.03;;;2.28;57.79
19884;BME280;10104;50.732;10.174;2023-02-28T09:15:23;99088.81;;;2.61;57.68
19884;BME280;10104;50.732;10.174;2023-02-28T09:17:44;99086.50;;;2.69;58.08
19884;BME280;10104;50.732;10.174;2023-02-28T09:20:09;99084.44;;;2.85;57.56
19884;BME280;10104;50.732;10.174;2023-02-28T09:22:31;99081.38;;;2.92;56.19
19884;BME280;10104;50.732;10.174;2023-02-28T09:24:52;99082.28;;;3.03;55.42
19884;BME280;10104;50.732;10.174;2023-02-28T09:27:14;99086.63;;;2.92;54.39
19884;BME280;10104;50.732;10.174;2023-02-28T09:29:35;99086.47;;;3.06;54.49
19884;BME280;10104;50.732;10.174;2023-02-28T09:31:57;99071.88;;;3.14;55.00
19884;BME280;10104;50.732;10.174;2023-02-28T09:34:20;99070.31;;;3.12;55.32
19884;BME280;10104;50.732;10.174;2023-02-28T09:36:41;99067.47;;;3.15;54.19
19884;BME280;10104;50.732;10.174;2023-02-28T09:39:06;99071.88;;;3.49;54.17
19884;BME280;10104;50.732;10.174;2023-02-28T09:41:36;99073.16;;;3.33;53.38
19884;BME280;10104;50.732;10.174;2023-02-28T09:44:03;99075.69;;;3.21;53.56
19884;BME280;10104;50.732;10.174;2023-02-28T09:46:38;99071.88;;;3.14;53.92
19884;BME280;10104;50.732;10.174;2023-02-28T09:49:05;99085.53;;;3.07;54.30
19884;BME280;10104;50.732;10.174;2023-02-28T09:51:34;99075.56;;;2.88;54.30
19884;BME280;10104;50.732;10.174;2023-02-28T09:53:57;99093.09;;;2.99;54.43
19884;BME280;10104;50.732;10.174;2023-02-28T09:56:27;99085.91;;;3.13;53.48
19884;BME280;10104;50.732;10.174;2023-02-28T09:59:01;99087.56;;;2.91;54.07
19884;BME280;10104;50.732;10.174;2023-02-28T10:01:53;99090.56;;;2.97;53.80
19884;BME280;10104;50.732;10.174;2023-02-28T10:04:40;99088.34;;;3.28;54.07
19884;BME280;10104;50.732;10.174;2023-02-28T10:07:13;99090.63;;;3.32;54.09
19884;BME280;10104;50.732;10.174;2023-02-28T10:09:39;99091.22;;;3.36;53.19
19884;BME280;10104;50.732;10.174;2023-02-28T10:12:05;99093.22;;;3.56;53.71
19884;BME280;10104;50.732;10.174;2023-02-28T10:14:29;99086.81;;;3.71;52.90
19884;BME280;10104;50.732;10.174;2023-02-28T10:17:13;99088.81;;;3.56;51.11
19884;BME280;10104;50.732;10.174;2023-02-28T10:24:48;99097.59;;;3.44;51.58
19884;BME280;10104;50.732;10.174;2023-02-28T10:27:19;99096.13;;;3.16;51.45
19884;BME280;10104;50.732;10.174;2023-02-28T10:30:09;99084.00;;;2.92;51.51
19884;BME280;10104;50.732;10.174;2023-02-28T10:32:34;99086.13;;;3.10;51.67
19884;BME280;10104;50.732;10.174;2023-02-28T10:37:30;99083.00;;;3.05;51.56
19884;BME280;10104;50.732;10.174;2023-02-28T10:39:53;99085.78;;;3.15;51.29
19884;BME280;10104;50.732;10.174;2023-02-28T10:42:26;99084.72;;;3.17;50.89
19884;BME280;10104;50.732;10.174;2023-02-28T10:44:48;99083.47;;;2.99;51.50
19884;BME280;10104;50.732;10.174;2023-02-28T10:47:16;99088.19;;;2.94;51.35
19884;BME280;10104;50.732;10.174;2023-02-28T10:49:47;99102.94;;;2.95;51.04
19884;BME280;10104;50.732;10.174;2023-02-28T10:52:09;99090.06;;;2.92;51.11
19884;BME280;10104;50.732;10.174;2023-02-28T10:54:34;99091.91;;;3.03;51.18
19884;BME280;10104;50.732;10.174;2023-02-28T10:57:20;99090.34;;;3.24;51.09
19884;BME280;10104;50.732;10.174;2023-02-28T10:59:43;99084.28;;;3.00;50.75
19884;BME280;10104;50.732;10.174;2023-02-28T11:02:34;99085.72;;;3.28;50.84
19884;BME280;10104;50.732;10.174;2023-02-28T11:04:57;99072.25;;;3.45;51.27
19884;BME280;10104;50.732;10.174;2023-02-28T11:07:20;99074.25;;;3.52;51.35
19884;BME280;10104;50.732;10.174;2023-02-28T11:09:48;99073.81;;;3.58;50.60
19884;BME280;10104;50.732;10.174;2023-02-28T11:12:25;99066.22;;;3.78;51.18
19884;BME280;10104;50.732;10.174;2023-02-28T11:14:52;99071.53;;;3.89;50.35
19884;BME280;10104;50.732;10.174;2023-02-28T11:17:28;99065.44;;;3.99;50.61
19884;BME280;10104;50.732;10.174;2023-02-28T11:19:53;99073.88;;;4.03;50.20
19884;BME280;10104;50.732;10.174;2023-02-28T11:22:20;99063.06;;;4.30;49.23
19884;BME280;10104;50.732;10.174;2023-02-28T11:24:46;99063.66;;;4.33;48.79
19884;BME280;10104;50.732;10.174;2023-02-28T11:29:55;99058.53;;;4.54;48.89
19884;BME280;10104;50.732;10.174;2023-02-28T11:32:26;99060.06;;;4.68;49.74
19884;BME280;10104;50.732;10.174;2023-02-28T11:37:32;99047.50;;;4.71;48.48
19884;BME280;10104;50.732;10.174;2023-02-28T11:39:54;99040.97;;;4.66;49.25
19884;BME280;10104;50.732;10.174;2023-02-28T11:48:16;99041.22;;;4.63;49.81
19884;BME280;10104;50.732;10.174;2023-02-28T11:50:47;99035.50;;;4.58;49.54
19884;BME280;10104;50.732;10.174;2023-02-28T11:55:53;99027.63;;;4.58;49.96
19884;BME280;10104;50.732;10.174;2023-02-28T11:58:33;99027.66;;;4.46;50.40
19884;BME280;10104;50.732;10.174;2023-02-28T12:01:25;99030.28;;;4.35;49.76
19884;BME280;10104;50.732;10.174;2023-02-28T12:04:04;99033.06;;;4.12;49.30
19884;BME280;10104;50.732;10.174;2023-02-28T12:06:55;99030.78;;;4.29;49.47
19884;BME280;10104;50.732;10.174;2023-02-28T12:12:47;99023.63;;;4.20;51.13
19884;BME280;10104;50.732;10.174;2023-02-28T12:22:59;99023.00;;;4.39;49.66
19884;BME280;10104;50.732;10.174;2023-02-28T12:28:09;99013.47;;;4.49;49.68
19884;BME280;10104;50.732;10.174;2023-02-28T12:30:34;99003.69;;;4.62;49.84
19884;BME280;10104;50.732;10.174;2023-02-28T12:33:08;99007.94;;;4.63;49.17
19884;BME280;10104;50.732;10.174;2023-02-28T12:35:42;99002.88;;;4.82;49.45
19884;BME280;10104;50.732;10.174;2023-02-28T12:38:19;98994.09;;;5.04;49.38
19884;BME280;10104;50.732;10.174;2023-02-28T12:40:50;98999.75;;;5.00;48.50
19884;BME280;10104;50.732;10.174;2023-02-28T12:43:16;98995.56;;;4.97;48.50
19884;BME280;10104;50.732;10.174;2023-02-28T12:46:32;98990.81;;;4.91;48.69
19884;BME280;10104;50.732;10.174;2023-02-28T12:48:52;98995.50;;;4.87;49.60
19884;BME280;10104;50.732;10.174;2023-02-28T12:51:17;98998.59;;;4.81;50.85
19884;BME280;10104;50.732;10.174;2023-02-28T12:56:32;98990.78;;;4.59;52.04
19884;BME280;10104;50.732;10.174;2023-02-28T12:58:57;98986.59;;;4.68;50.21
19884;BME280;10104;50.732;10.174;2023-02-28T13:01:42;98984.22;;;4.65;50.24
19884;BME280;10104;50.732;10.174;2023-02-28T13:04:46;98992.97;;;4.86;49.92
19884;BME280;10104;50.732;10.174;2023-02-28T13:09:41;98968.75;;;4.82;50.98
19884;BME280;10104;50.732;10.174;2023-02-28T13:12:13;98966.75;;;5.07;49.81
19884;BME280;10104;50.732;10.174;2023-02-28T13:14:37;98967.59;;;5.07;50.14
19884;BME280;10104;50.732;10.174;2023-02-28T13:17:19;98983.16;;;4.99;49.54
19884;BME280;10104;50.732;10.174;2023-02-28T13:19:55;98984.44;;;5.05;49.75
19884;BME280;10104;50.732;10.174;2023-02-28T13:24:57;98979.38;;;5.13;48.92
19884;BME280;10104;50.732;10.174;2023-02-28T13:27:39;98975.91;;;5.12;49.98
19884;BME280;10104;50.732;10.174;2023-02-28T13:33:22;98982.28;;;5.31;48.33
19884;BME280;10104;50.732;10.174;2023-02-28T13:35:45;98979.28;;;5.35;47.84
19884;BME280;10104;50.732;10.174;2023-02-28T13:38:22;98974.84;;;5.36;48.23
19884;BME280;10104;50.732;10.174;2023-02-28T13:40:44;98981.69;;;5.48;47.71
19884;BME280;10104;50.732;10.174;2023-02-28T13:43:08;98982.78;;;5.45;49.37
19884;BME280;10104;50.732;10.174;2023-02-28T13:45:30;98974.34;;;5.42;49.57
19884;BME280;10104;50.732;10.174;2023-02-28T13:48:00;98975.75;;;5.76;48.70
19884;BME280;10104;50.732;10.174;2023-02-28T13:50:34;98972.06;;;5.58;48.43
19884;BME280;10104;50.732;10.174;2023-02-28T13:56:07;98966.78;;;5.48;48.91
19884;BME280;10104;50.732;10.174;2023-02-28T13:58:48;98964.78;;;5.41;49.09
19884;BME280;10104;50.732;10.174;2023-02-28T14:07:03;98964.63;;;5.63;48.64
19884;BME280;10104;50.732;10.174;2023-02-28T14:09:34;98967.00;;;5.66;48.48